This is the latest recevied weather packets stored in our database for station/object N9MXT-13. If no packets are shown the sender has not sent any weather packets the latest 10 day(s).
| Time | Temp. | Humidity | Pressure | Rain* | Wind** | Luminosity | Snow |
|---|---|---|---|---|---|---|---|
| 1778146497 | 0.56° C | 77% | 1015.1 hPa | 0 mm | - | - | - |
| 1778144404 | 1.11° C | 75% | 1015 hPa | 0 mm | - | - | - |
| 1778142299 | 1.11° C | 76% | 1015.1 hPa | 0 mm | - | - | - |
| 1778141399 | 1.11° C | 76% | 1015 hPa | 0 mm | - | - | - |
| 1778141099 | 1.67° C | 76% | 1015 hPa | 0 mm | - | - | - |
| 1778139599 | 1.67° C | 75% | 1015.3 hPa | 0 mm | - | - | - |
| 1778137499 | 2.22° C | 77% | 1015.6 hPa | 0 mm | - | - | - |
| 1778133899 | 2.78° C | 70% | 1015.7 hPa | 0 mm | - | - | - |
| 1778133001 | 2.78° C | 70% | 1015.7 hPa | 0 mm | - | - | - |
| 1778129400 | 3.33° C | 68% | 1015.7 hPa | 0 mm | - | - | - |
| 1778127003 | 4.44° C | 65% | 1015.7 hPa | 0 mm | - | - | - |
| 1778126404 | 4.44° C | 65% | 1015.7 hPa | 0 mm | - | - | - |
| 1778123701 | 5.56° C | 60% | 1015.8 hPa | 0 mm | - | - | - |
| 1778123101 | 6.11° C | 58% | 1015.8 hPa | 0 mm | - | - | - |
| 1778121300 | 6.67° C | 56% | 1015.6 hPa | 0 mm | - | - | - |
| 1778121000 | 6.67° C | 55% | 1015.5 hPa | 0 mm | - | - | - |
| 1778120100 | 6.67° C | 54% | 1015.4 hPa | 0 mm | - | - | - |
| 1778117700 | 7.78° C | 52% | 1015.1 hPa | 0 mm | - | - | - |
| 1778116801 | 7.78° C | 51% | 1014.9 hPa | 0 mm | - | - | - |
| 1778116500 | 7.78° C | 51% | 1014.8 hPa | 0 mm | - | - | - |
| 1778113800 | 8.89° C | 46% | 1014.6 hPa | 0 mm | - | - | - |
| 1778113500 | 8.89° C | 46% | 1014.6 hPa | 0 mm | - | - | - |
| 1778113201 | 9.44° C | 48% | 1014.5 hPa | 0 mm | - | - | - |
| 1778111701 | 10° C | 46% | 1014.3 hPa | 0 mm | - | - | - |
| 1778111401 | 10° C | 46% | 1014.4 hPa | 0 mm | - | - | - |
* Rain latest hour (hover to see other rain measurements)
** Current wind speed in m/s (hover to see current wind gust speed)